Terminal Aerodrome Forecast
Issued by NWS Tampa Bay Area, FL

Home | Current Version | Previous Version | Text Only | Print | Product List | Glossary On
Versions: 1 2 3 4 5 6 7 8 9 10 11 12 13 14 15 16
000
FTUS42 KTBW 161700
TAFFMY
TAF
KFMY 161735Z 1618/1718 06011KT P6SM SCT020 BKN070
      TEMPO 1618/1620 BKN020
     FM170300 05007KT P6SM BKN035
     FM170800 VRB05KT P6SM SCT020 BKN030
     FM171200 06009KT P6SM VCSH SCT010 BKN040=

USA.gov is the U.S. government's official web portal to all federal, state and local government web resources and services.